Time;durP1;ratioP1;P1;durP2;ratioP2;P2;SDS_P1;SDS_P2;PMS_P1;PMS_P2;Temp;Humidity;BMP_temperature;BMP_pressure;BME280_temperature;BME280_humidity;BME280_pressure;Samples;Min_cycle;Max_cycle;Signal;HPM_P1;HPM_P2
2023/02/09 00:01:34;;;;;;;12.93;6.90;;;;;;;2.04;54.20;103095.66;5120769;28;20126;-62
2023/02/09 00:04:02;;;;;;;15.05;8.25;;;;;;;2.05;54.18;103097.38;5095852;28;20093;-62
2023/02/09 00:06:30;;;;;;;11.13;7.07;;;;;;;2.02;54.48;103097.69;5117256;28;20039;-61
2023/02/09 00:08:58;;;;;;;12.73;7.03;;;;;;;1.95;54.21;103093.94;5116067;28;20074;-62
2023/02/09 00:14:17;;;;;;;12.02;7.25;;;;;;;1.91;54.82;103108.66;5093538;28;20097;-63
2023/02/09 00:16:48;;;;;;;14.50;7.38;;;;;;;1.91;54.64;103103.28;5110957;27;20400;-63
2023/02/09 00:19:16;;;;;;;11.93;7.28;;;;;;;1.86;54.88;103105.59;5117987;28;20056;-61
2023/02/09 00:21:44;;;;;;;11.70;7.22;;;;;;;1.85;55.08;103102.06;5116244;28;20145;-61
2023/02/09 00:24:12;;;;;;;11.50;6.95;;;;;;;1.81;55.34;103110.59;5116858;28;20127;-61
2023/02/09 00:26:41;;;;;;;11.77;7.50;;;;;;;1.78;55.27;103109.06;5113112;27;20499;-63
2023/02/09 00:29:10;;;;;;;12.77;7.45;;;;;;;1.77;55.70;103101.97;5116626;28;20051;-63
2023/02/09 00:31:37;;;;;;;13.85;7.05;;;;;;;1.79;55.78;103105.38;5095326;28;20553;-62
2023/02/09 00:34:06;;;;;;;14.55;8.48;;;;;;;1.80;55.77;103103.50;5087800;28;20069;-60
2023/02/09 00:36:33;;;;;;;12.32;7.43;;;;;;;1.84;55.26;103107.59;5115238;27;20044;-63
2023/02/09 00:39:01;;;;;;;11.10;7.03;;;;;;;1.81;56.05;103105.22;5113415;28;20069;-64
2023/02/09 00:44:15;;;;;;;11.90;7.25;;;;;;;1.80;55.83;103116.97;5116066;28;20046;-63
2023/02/09 00:46:43;;;;;;;11.52;6.68;;;;;;;1.78;56.15;103118.94;5097598;28;20069;-61
2023/02/09 00:49:12;;;;;;;10.93;7.13;;;;;;;1.69;56.28;103110.81;5098876;28;20088;-62
2023/02/09 00:51:40;;;;;;;11.82;6.70;;;;;;;1.69;56.78;103110.81;5114339;28;20035;-63
2023/02/09 00:54:08;;;;;;;12.45;6.75;;;;;;;1.70;56.78;103117.03;5116058;28;20140;-63
2023/02/09 00:56:35;;;;;;;11.77;7.15;;;;;;;1.68;56.80;103119.88;5113893;28;20070;-64
2023/02/09 00:59:03;;;;;;;12.35;7.28;;;;;;;1.68;56.98;103114.50;5097976;28;20052;-63
2023/02/09 01:01:31;;;;;;;14.27;7.40;;;;;;;1.69;57.00;103110.81;5097701;28;20059;-62
2023/02/09 01:03:59;;;;;;;11.70;7.18;;;;;;;1.64;56.89;103105.06;5110490;28;20111;-62
2023/02/09 01:06:28;;;;;;;12.57;7.43;;;;;;;1.62;57.12;103093.59;5094399;28;20051;-62
2023/02/09 01:08:57;;;;;;;11.60;7.22;;;;;;;1.50;57.27;103105.56;5109989;28;20522;-61
2023/02/09 01:11:27;;;;;;;12.07;7.47;;;;;;;1.47;57.50;103111.25;5103615;27;20040;-61
2023/02/09 01:13:58;;;;;;;12.85;7.38;;;;;;;1.45;58.04;103114.09;5109761;28;20088;-63
2023/02/09 01:16:30;;;;;;;12.45;8.00;;;;;;;1.49;57.82;103114.63;5093972;28;20051;-62
2023/02/09 01:19:00;;;;;;;14.25;7.82;;;;;;;1.52;58.15;103108.97;5087372;28;20086;-64
2023/02/09 01:21:29;;;;;;;11.68;7.25;;;;;;;1.55;57.71;103107.81;5095320;28;20047;-65
2023/02/09 01:23:57;;;;;;;13.38;7.82;;;;;;;1.53;57.88;103105.25;5100950;28;20495;-64
2023/02/09 01:26:24;;;;;;;15.90;7.13;;;;;;;1.56;58.18;103099.59;5115397;28;20402;-62
2023/02/09 01:28:53;;;;;;;11.25;7.18;;;;;;;1.59;58.19;103103.81;5113846;27;20035;-64
2023/02/09 01:31:25;;;;;;;11.05;7.32;;;;;;;1.58;57.53;103108.34;5094657;28;20412;-63
2023/02/09 01:33:54;;;;;;;15.32;7.85;;;;;;;1.55;57.69;103103.28;5097215;28;20051;-63
2023/02/09 01:36:21;;;;;;;15.85;8.07;;;;;;;1.51;57.95;103101.88;5095207;28;20039;-64
2023/02/09 01:38:49;;;;;;;11.85;7.43;;;;;;;1.48;58.03;103104.88;5095388;28;20052;-64
2023/02/09 01:41:18;;;;;;;12.70;7.68;;;;;;;1.48;58.07;103107.56;5091620;28;20055;-63
2023/02/09 01:43:53;;;;;;;15.02;7.10;;;;;;;1.47;57.77;103106.72;5094965;28;20477;-62
2023/02/09 01:46:23;;;;;;;13.32;7.85;;;;;;;1.47;57.86;103108.56;5094947;28;20405;-63
2023/02/09 01:49:12;;;;;;;12.18;7.53;;;;;;;1.45;57.56;103108.72;5060050;28;20577;-62
2023/02/09 01:52:00;;;;;;;11.65;7.78;;;;;;;1.44;57.63;103100.78;5094101;28;20123;-62
2023/02/09 01:54:41;;;;;;;15.95;8.50;;;;;;;1.42;57.37;103100.09;5076817;28;20114;-60
2023/02/09 01:57:12;;;;;;;11.23;6.95;;;;;;;1.41;57.81;103095.72;5094374;28;20047;-61
2023/02/09 01:59:42;;;;;;;11.60;7.45;;;;;;;1.39;57.84;103101.25;5077684;27;20057;-62
2023/02/09 02:02:10;;;;;;;12.05;6.88;;;;;;;1.43;58.32;103101.81;5111449;27;20047;-62
2023/02/09 02:04:38;;;;;;;12.68;7.70;;;;;;;1.45;57.62;103089.91;5114590;27;20545;-64
2023/02/09 02:07:12;;;;;;;13.43;7.75;;;;;;;1.40;57.61;103094.06;5062207;28;20400;-62
2023/02/09 02:09:39;;;;;;;13.75;7.90;;;;;;;1.35;57.23;103096.31;5092922;28;20063;-64
2023/02/09 02:12:08;;;;;;;12.70;7.15;;;;;;;1.32;57.92;103097.47;5111812;27;20052;-63
2023/02/09 02:14:37;;;;;;;13.65;7.72;;;;;;;1.34;57.87;103089.28;5097841;28;20119;-63
2023/02/09 02:17:43;;;;;;;11.52;7.50;;;;;;;1.36;58.00;103084.59;5100270;28;20058;-63
2023/02/09 02:20:49;;;;;;;15.50;7.75;;;;;;;1.39;57.36;103081.59;5113757;28;20102;-64
2023/02/09 02:23:32;;;;;;;11.43;7.18;;;;;;;1.32;57.36;103085.88;5090059;28;20113;-63
2023/02/09 02:26:02;;;;;;;11.75;7.40;;;;;;;1.30;57.77;103082.50;5059487;28;20399;-61
2023/02/09 02:28:55;;;;;;;13.10;7.70;;;;;;;1.30;57.77;103077.13;5092715;28;20052;-62
2023/02/09 02:31:33;;;;;;;13.30;7.72;;;;;;;1.26;57.38;103082.81;5095175;27;20475;-63
2023/02/09 02:34:38;;;;;;;11.13;7.60;;;;;;;1.27;57.97;103068.41;5113363;28;20506;-63
2023/02/09 02:37:14;;;;;;;13.43;7.43;;;;;;;1.26;57.69;103061.34;5083013;28;20058;-62
2023/02/09 02:39:58;;;;;;;13.30;7.45;;;;;;;1.26;57.07;103064.00;5112760;27;20065;-63
2023/02/09 02:42:51;;;;;;;12.15;7.38;;;;;;;1.23;57.64;103055.44;5092712;28;20484;-64
2023/02/09 02:45:47;;;;;;;13.23;7.78;;;;;;;1.25;57.46;103053.41;5073437;28;20077;-64
2023/02/09 02:48:17;;;;;;;;;;;;;;;1.20;57.61;103053.03;5094363;28;20056;-63
2023/02/09 02:51:03;;;;;;;12.60;8.18;;;;;;;1.18;57.65;103047.81;5094602;28;19919;-62
2023/02/09 02:53:34;;;;;;;14.52;8.15;;;;;;;1.14;57.46;103054.47;5082456;28;20119;-63
2023/02/09 02:56:27;;;;;;;11.85;7.53;;;;;;;1.15;57.62;103061.53;5092554;28;20048;-62
2023/02/09 02:58:57;;;;;;;13.32;7.82;;;;;;;1.13;57.30;103049.25;5085047;28;20562;-62
2023/02/09 03:01:26;;;;;;;12.23;7.85;;;;;;;1.12;57.58;103048.41;5075621;28;20059;-63
2023/02/09 03:03:55;;;;;;;12.60;7.30;;;;;;;1.12;57.31;103050.25;5082913;28;20097;-62
2023/02/09 03:06:22;;;;;;;12.90;7.50;;;;;;;1.13;57.54;103050.13;5091952;28;20048;-63
2023/02/09 03:08:52;;;;;;;12.70;7.93;;;;;;;1.14;57.53;103040.22;5093627;28;20074;-63
2023/02/09 03:11:22;;;;;;;11.73;7.63;;;;;;;1.14;57.64;103041.06;5093760;28;20044;-63
2023/02/09 03:13:53;;;;;;;12.50;7.30;;;;;;;1.16;57.55;103043.59;5097495;28;20058;-64
2023/02/09 03:16:36;;;;;;;12.02;7.35;;;;;;;1.18;57.71;103045.16;5112315;28;20056;-64
2023/02/09 03:19:24;;;;;;;12.68;7.90;;;;;;;1.17;56.75;103048.81;5112748;28;20554;-62
2023/02/09 03:21:58;;;;;;;10.57;7.35;;;;;;;1.09;57.32;103051.41;5108812;28;20049;-61
2023/02/09 03:24:36;;;;;;;10.77;7.22;;;;;;;1.11;57.46;103052.09;5097075;28;20068;-62
2023/02/09 03:27:13;;;;;;;13.25;7.75;;;;;;;1.10;57.09;103042.34;5110619;28;20044;-63
2023/02/09 03:29:43;;;;;;;13.45;7.38;;;;;;;1.07;57.57;103045.34;5114660;28;20079;-61
2023/02/09 03:32:11;;;;;;;12.63;7.63;;;;;;;1.05;56.87;103042.78;5134171;28;20205;-58
2023/02/09 03:34:39;;;;;;;10.57;7.30;;;;;;;1.03;57.12;103049.31;5114224;28;20119;-63
2023/02/09 03:37:06;;;;;;;12.15;7.38;;;;;;;0.96;57.32;103051.78;5104752;28;20047;-62
2023/02/09 03:39:34;;;;;;;11.30;6.88;;;;;;;0.97;57.71;103053.44;5103816;28;20075;-60
2023/02/09 03:42:02;;;;;;;9.80;6.25;;;;;;;1.03;57.67;103043.94;5138439;28;20098;-58
2023/02/09 03:44:29;;;;;;;11.80;6.43;;;;;;;1.08;57.71;103047.03;5128893;28;20146;-63
2023/02/09 03:46:59;;;;;;;10.48;5.97;;;;;;;1.10;57.53;103038.81;5100129;28;20055;-63
2023/02/09 03:49:33;;;;;;;11.38;6.65;;;;;;;1.13;57.52;103036.69;5096215;28;20093;-62
2023/02/09 03:52:02;;;;;;;10.73;7.10;;;;;;;1.14;57.22;103033.00;5097260;28;20484;-61
2023/02/09 03:54:30;;;;;;;12.25;6.95;;;;;;;1.03;56.95;103027.84;5098215;28;20036;-61
2023/02/09 03:56:59;;;;;;;11.90;7.50;;;;;;;0.97;57.02;103031.13;5112622;27;20064;-62
2023/02/09 03:59:27;;;;;;;13.52;8.05;;;;;;;0.97;56.99;103028.44;5117750;28;20054;-62
2023/02/09 04:01:57;;;;;;;10.77;7.05;;;;;;;0.96;57.59;103024.94;5099076;28;20126;-63
2023/02/09 04:04:25;;;;;;;12.35;7.35;;;;;;;0.97;57.34;103021.25;5116146;28;20044;-61
2023/02/09 04:06:53;;;;;;;12.13;7.35;;;;;;;0.95;56.65;103030.44;5112647;28;20593;-63
2023/02/09 04:09:21;;;;;;;10.27;6.80;;;;;;;0.93;56.92;103027.88;5118268;28;20492;-63
2023/02/09 04:11:49;;;;;;;9.68;6.18;;;;;;;0.94;57.02;103023.38;5118286;28;20043;-64
2023/02/09 04:14:17;;;;;;;10.43;6.43;;;;;;;0.96;57.08;103011.50;5117403;28;20130;-62
2023/02/09 04:16:46;;;;;;;10.30;6.40;;;;;;;0.97;56.84;103013.19;5098992;27;20125;-63
2023/02/09 04:19:14;;;;;;;11.32;6.43;;;;;;;0.95;56.95;102992.84;5115155;28;20072;-64
2023/02/09 04:21:41;;;;;;;10.43;6.85;;;;;;;1.03;58.25;102995.63;5115688;28;20054;-63
2023/02/09 04:24:09;;;;;;;11.68;6.88;;;;;;;0.96;57.30;102990.03;5095301;28;20047;-62
2023/02/09 04:26:37;;;;;;;10.40;6.70;;;;;;;0.89;57.45;102988.94;5096140;28;20044;-63
2023/02/09 04:29:04;;;;;;;11.80;6.85;;;;;;;0.81;57.09;103002.25;5074580;28;20048;-62
2023/02/09 04:31:33;;;;;;;16.60;7.13;;;;;;;0.83;57.29;102994.91;5097313;28;20055;-61
2023/02/09 04:34:01;;;;;;;10.50;6.38;;;;;;;0.88;58.73;102991.78;5078029;28;20135;-62
2023/02/09 04:36:29;;;;;;;12.13;6.57;;;;;;;0.95;59.77;102998.22;5096496;28;20097;-62
2023/02/09 04:38:56;;;;;;;10.95;6.00;;;;;;;1.00;61.96;103001.31;5096186;27;20048;-62
2023/02/09 04:41:24;;;;;;;7.32;4.03;;;;;;;1.02;63.54;102988.56;5095125;28;20522;-62
2023/02/09 04:43:52;;;;;;;14.80;6.80;;;;;;;0.98;60.31;102976.44;5091952;28;20052;-63
2023/02/09 04:46:19;;;;;;;10.77;6.38;;;;;;;0.99;60.15;102979.00;5095998;28;20126;-65
2023/02/09 04:48:47;;;;;;;12.68;7.03;;;;;;;0.93;58.79;102978.75;5101462;27;20044;-63
2023/02/09 04:51:15;;;;;;;10.05;6.07;;;;;;;0.92;58.98;102971.69;5114754;28;20507;-63
2023/02/09 04:53:43;;;;;;;11.30;6.05;;;;;;;0.91;58.96;102976.19;5114576;28;20040;-63
2023/02/09 04:56:14;;;;;;;11.13;6.78;;;;;;;0.91;58.73;102978.03;5094655;28;20052;-63
2023/02/09 05:01:36;;;;;;;9.48;6.18;;;;;;;0.93;58.51;102992.16;5086743;28;20052;-61
2023/02/09 05:04:03;;;;;;;10.82;6.70;;;;;;;0.94;58.17;103001.88;5096676;28;20046;-61
2023/02/09 05:06:31;;;;;;;11.07;6.40;;;;;;;0.99;59.68;102996.94;5096166;28;20040;-62
2023/02/09 05:08:58;;;;;;;11.77;6.72;;;;;;;1.01;58.53;103002.97;5101931;27;20044;-62
2023/02/09 05:11:26;;;;;;;13.98;7.75;;;;;;;1.00;58.10;103007.50;5113242;27;20047;-61
2023/02/09 05:13:55;;;;;;;11.38;7.30;;;;;;;1.00;58.61;103002.13;5115845;28;20039;-62
2023/02/09 05:16:22;;;;;;;9.80;5.93;;;;;;;0.98;58.57;102998.75;5115671;28;20101;-63
2023/02/09 05:18:50;;;;;;;10.63;7.10;;;;;;;0.94;58.87;102996.53;5106611;27;20056;-60
2023/02/09 05:21:18;;;;;;;12.82;7.10;;;;;;;0.91;58.48;103002.19;5094951;28;20040;-63
2023/02/09 05:23:45;;;;;;;11.25;7.05;;;;;;;0.90;58.44;103006.72;5093754;28;20050;-62
2023/02/09 05:26:13;;;;;;;12.32;7.32;;;;;;;0.87;58.66;103006.16;5093710;28;20048;-62
2023/02/09 05:28:41;;;;;;;11.98;7.00;;;;;;;0.83;58.65;103011.84;5096213;27;20069;-63
2023/02/09 05:31:08;;;;;;;10.32;6.03;;;;;;;0.85;59.29;103017.91;5095037;28;20101;-63
2023/02/09 05:33:36;;;;;;;10.57;5.95;;;;;;;0.89;59.00;103009.56;5095955;28;20134;-64
2023/02/09 05:36:08;;;;;;;8.88;5.63;;;;;;;0.93;61.45;103014.47;5094983;28;20047;-63
2023/02/09 05:38:36;;;;;;;9.38;5.88;;;;;;;0.95;61.72;103019.69;5095295;28;20094;-64
2023/02/09 05:41:08;;;;;;;11.30;6.38;;;;;;;0.92;59.60;103023.53;5096155;27;20054;-62
2023/02/09 05:43:37;;;;;;;12.60;8.13;;;;;;;0.81;59.07;103023.72;5093515;28;20054;-65
2023/02/09 05:46:04;;;;;;;13.18;7.93;;;;;;;0.71;58.94;103023.78;5109769;28;20403;-63
2023/02/09 05:48:35;;;;;;;13.70;8.45;;;;;;;0.65;59.61;103024.38;5113989;28;20068;-63
2023/02/09 05:51:02;;;;;;;13.77;8.55;;;;;;;0.60;59.35;103030.19;5101719;28;20056;-64
2023/02/09 05:53:30;;;;;;;13.40;7.75;;;;;;;0.59;59.75;103022.28;5100205;28;20051;-64
2023/02/09 05:55:57;;;;;;;17.92;8.82;;;;;;;0.57;59.47;103034.97;5113603;28;20043;-64
2023/02/09 05:58:27;;;;;;;13.88;8.02;;;;;;;0.61;59.87;103031.03;5115218;28;20044;-62
2023/02/09 06:00:57;;;;;;;10.35;6.63;;;;;;;0.69;60.46;103025.75;5097147;28;20044;-63
2023/02/09 06:03:24;;;;;;;12.18;7.60;;;;;;;0.70;59.86;103014.03;5094329;28;20506;-63
2023/02/09 06:05:52;;;;;;;16.98;8.07;;;;;;;0.75;59.07;103011.75;5095162;28;20110;-61
2023/02/09 06:08:20;;;;;;;10.73;6.50;;;;;;;0.68;59.73;103009.81;5094096;28;20052;-63
2023/02/09 06:10:47;;;;;;;11.07;6.82;;;;;;;0.65;60.29;103008.28;5095193;28;20047;-62
2023/02/09 06:13:15;;;;;;;14.20;7.68;;;;;;;0.61;59.98;103009.56;5093176;28;20097;-63
2023/02/09 06:15:42;;;;;;;11.70;7.20;;;;;;;0.62;60.36;103000.50;5096082;28;20047;-63
2023/02/09 06:18:10;;;;;;;11.98;7.43;;;;;;;0.68;61.34;102986.50;5099450;28;20373;-63
2023/02/09 06:20:38;;;;;;;12.15;7.57;;;;;;;0.69;60.09;102988.19;5093940;28;20139;-65
2023/02/09 06:23:05;;;;;;;14.52;8.35;;;;;;;0.71;62.05;102990.72;5105221;28;20048;-62
2023/02/09 06:25:33;;;;;;;22.52;8.23;;;;;;;0.74;65.18;102996.63;5096280;28;20388;-64
2023/02/09 06:28:01;;;;;;;26.23;9.18;;;;;;;0.69;62.71;103009.66;5093492;28;20052;-64
2023/02/09 06:30:29;;;;;;;15.18;8.32;;;;;;;0.58;60.98;103013.38;4386040;28;10000726;-63
2023/02/09 06:32:59;;;;;;;16.05;8.38;;;;;;;0.56;60.83;103019.91;5091386;28;20055;-64
2023/02/09 06:35:27;;;;;;;12.68;7.60;;;;;;;0.56;60.84;103031.47;5089990;28;20087;-63
2023/02/09 06:37:58;;;;;;;13.93;8.30;;;;;;;0.56;60.83;103025.25;5102667;28;20051;-64
2023/02/09 06:40:26;;;;;;;15.05;8.45;;;;;;;0.57;60.23;103033.13;5108898;28;20070;-62
2023/02/09 06:42:53;;;;;;;11.95;6.93;;;;;;;0.64;61.69;103028.03;5102997;28;20047;-64
2023/02/09 06:45:21;;;;;;;12.88;7.50;;;;;;;0.69;61.10;103036.47;5091776;28;20051;-63
2023/02/09 06:47:49;;;;;;;11.23;6.68;;;;;;;0.72;61.82;103030.84;5092742;28;20036;-61
2023/02/09 06:50:17;;;;;;;11.48;6.68;;;;;;;0.92;72.99;103033.44;5104709;28;20517;-61
2023/02/09 06:52:45;;;;;;;15.77;7.78;;;;;;;0.88;66.99;103040.09;5109941;28;20070;-63
2023/02/09 06:55:13;;;;;;;10.57;6.45;;;;;;;0.80;64.51;103049.72;5083445;28;20178;-62
2023/02/09 06:57:40;;;;;;;12.57;7.53;;;;;;;0.78;64.18;103057.06;5093950;28;20056;-63
2023/02/09 07:00:10;;;;;;;15.18;6.82;;;;;;;0.77;64.20;103054.50;5090453;28;20054;-64
2023/02/09 07:02:39;;;;;;;10.30;6.28;;;;;;;0.81;68.49;103062.13;5090317;28;20074;-62
2023/02/09 07:05:07;;;;;;;13.15;6.95;;;;;;;0.79;66.31;103058.75;5103591;27;20039;-63
2023/02/09 07:07:35;;;;;;;12.30;6.95;;;;;;;0.79;65.59;103060.59;5108030;28;20483;-64
2023/02/09 07:10:04;;;;;;;11.93;7.50;;;;;;;0.76;64.02;103074.31;5108754;28;20480;-62
2023/02/09 07:12:31;;;;;;;12.07;7.32;;;;;;;0.78;66.42;103073.16;5109338;28;20051;-63
2023/02/09 07:15:02;;;;;;;13.20;6.78;;;;;;;0.82;66.72;103068.38;5092547;28;20158;-64
2023/02/09 07:17:30;;;;;;;13.27;7.82;;;;;;;0.81;65.34;103072.84;5099253;28;20055;-64
2023/02/09 07:19:58;;;;;;;12.98;6.25;;;;;;;0.85;70.77;103071.59;5096199;28;20054;-60
2023/02/09 07:22:27;;;;;;;12.77;7.30;;;;;;;0.88;67.99;103088.38;5099925;28;20055;-63
2023/02/09 07:24:54;;;;;;;13.40;7.50;;;;;;;0.84;65.35;103082.44;5115759;28;20039;-64
2023/02/09 07:27:22;;;;;;;12.75;6.47;;;;;;;0.83;68.24;103080.78;5111641;28;20051;-64
2023/02/09 07:29:49;;;;;;;10.23;7.00;;;;;;;0.81;64.71;103082.75;5096032;28;20044;-64
2023/02/09 07:32:17;;;;;;;11.80;7.00;;;;;;;0.83;65.19;103070.03;5118576;27;20070;-63
2023/02/09 07:34:45;;;;;;;12.98;7.53;;;;;;;0.86;64.67;103075.09;5139184;27;20056;-62
2023/02/09 07:37:12;;;;;;;12.98;7.63;;;;;;;0.84;64.37;103069.91;5130843;28;20059;-64
2023/02/09 07:39:40;;;;;;;13.90;7.60;;;;;;;0.88;65.72;103074.97;5117002;28;20142;-62
2023/02/09 07:42:08;;;;;;;12.20;6.82;;;;;;;0.89;68.53;103058.72;5107989;28;20048;-64
2023/02/09 07:44:49;;;;;;;12.85;7.25;;;;;;;0.88;66.44;103066.91;5116240;27;20070;-63
2023/02/09 07:47:17;;;;;;;11.05;6.70;;;;;;;0.85;66.21;103071.59;5110238;27;20039;-66
2023/02/09 07:49:44;;;;;;;11.60;7.10;;;;;;;0.84;66.05;103077.97;5125517;27;20073;-63
2023/02/09 07:52:12;;;;;;;13.38;7.78;;;;;;;0.84;65.48;103075.28;5112975;27;20065;-65
2023/02/09 07:54:40;;;;;;;15.00;8.75;;;;;;;0.89;66.46;103084.69;5096773;28;20502;-65
2023/02/09 07:57:07;;;;;;;16.42;8.65;;;;;;;0.88;64.73;103088.38;5107566;28;20044;-64
2023/02/09 07:59:35;;;;;;;14.90;9.95;;;;;;;0.85;63.91;103084.16;5116427;28;20486;-64
2023/02/09 08:02:03;;;;;;;16.80;9.15;;;;;;;0.74;63.65;103093.22;5116445;27;20480;-64
2023/02/09 08:04:31;;;;;;;14.60;9.23;;;;;;;0.67;64.36;103091.28;5097586;28;20044;-62
2023/02/09 08:07:00;;;;;;;14.68;8.88;;;;;;;0.64;64.20;103087.06;5098935;27;20075;-64
2023/02/09 08:09:28;;;;;;;15.27;8.52;;;;;;;0.67;64.76;103084.06;5095427;28;20040;-63
2023/02/09 08:12:00;;;;;;;14.07;9.13;;;;;;;0.66;64.01;103087.75;5095544;28;20048;-61
2023/02/09 08:14:29;;;;;;;15.02;9.68;;;;;;;0.68;64.51;103098.34;5079537;28;20139;-63
2023/02/09 08:17:20;;;;;;;14.73;9.10;;;;;;;0.67;64.28;103089.44;5111761;28;20502;-62
2023/02/09 08:20:04;;;;;;;16.17;8.82;;;;;;;0.78;65.52;103083.91;5116140;28;20126;-62
2023/02/09 08:22:34;;;;;;;16.55;8.70;;;;;;;0.85;64.70;103082.31;5081618;28;20083;-63
2023/02/09 08:25:03;;;;;;;16.42;9.05;;;;;;;0.91;64.70;103077.34;5114912;27;20101;-64
2023/02/09 08:27:31;;;;;;;17.05;9.20;;;;;;;0.98;65.19;103079.28;5114750;28;20051;-64
2023/02/09 08:29:59;;;;;;;18.23;8.60;;;;;;;1.02;66.08;103071.78;5116804;28;20043;-63
2023/02/09 08:32:26;;;;;;;18.75;9.02;;;;;;;1.07;67.79;103064.13;5115150;28;20486;-63
2023/02/09 08:34:54;;;;;;;17.25;9.23;;;;;;;1.11;65.99;103070.03;5115084;27;20054;-62
2023/02/09 08:37:22;;;;;;;15.70;8.93;;;;;;;1.05;65.02;103052.69;5116264;28;20043;-64
2023/02/09 08:39:49;;;;;;;13.82;8.95;;;;;;;1.02;64.78;103063.75;5116644;28;20138;-64
2023/02/09 08:42:17;;;;;;;14.52;9.07;;;;;;;1.03;64.76;103054.69;5116463;28;20051;-62
2023/02/09 08:44:45;;;;;;;17.13;10.20;;;;;;;1.05;64.79;103063.44;5116365;28;20040;-63
2023/02/09 08:47:13;;;;;;;15.88;9.45;;;;;;;0.96;64.65;103075.94;5098462;28;20048;-64
2023/02/09 08:49:41;;;;;;;16.35;10.77;;;;;;;0.97;65.53;103060.66;5094960;28;20040;-64
2023/02/09 08:52:09;;;;;;;16.25;10.68;;;;;;;0.95;65.16;103054.59;5096233;28;20058;-63
2023/02/09 08:54:36;;;;;;;16.88;9.90;;;;;;;0.96;65.51;103046.41;5096624;28;20395;-63
2023/02/09 08:57:04;;;;;;;17.33;9.63;;;;;;;0.97;65.43;103056.13;5116362;27;20562;-64
2023/02/09 08:59:32;;;;;;;26.75;11.90;;;;;;;1.09;68.22;103043.34;5099901;27;20044;-63
2023/02/09 09:02:00;;;;;;;37.30;12.63;;;;;;;1.22;71.20;103043.81;5107903;28;20051;-64
2023/02/09 09:04:28;;;;;;;26.52;12.27;;;;;;;1.28;70.72;103053.97;5116717;28;20126;-62
2023/02/09 09:06:55;;;;;;;22.02;11.70;;;;;;;1.26;68.85;103050.59;5113092;28;20058;-63
2023/02/09 09:09:23;;;;;;;26.48;11.57;;;;;;;1.36;71.08;103047.00;5097834;28;20051;-63
2023/02/09 09:11:51;;;;;;;24.20;12.25;;;;;;;1.39;72.29;103044.00;5095762;28;20044;-62
2023/02/09 09:14:18;;;;;;;30.20;12.82;;;;;;;1.45;73.01;103064.91;5095435;28;20077;-64
2023/02/09 09:16:46;;;;;;;23.83;11.15;;;;;;;1.45;70.02;103057.69;5115614;28;20130;-65
2023/02/09 09:19:14;;;;;;;24.83;10.63;;;;;;;1.50;75.79;103051.84;5115857;28;20055;-64
2023/02/09 09:21:41;;;;;;;21.17;10.40;;;;;;;1.49;70.96;103058.19;5116153;28;20050;-63
2023/02/09 09:24:09;;;;;;;20.13;10.23;;;;;;;1.54;73.68;103074.72;5114965;28;20054;-62
2023/02/09 09:26:37;;;;;;;20.08;10.45;;;;;;;1.53;71.64;103073.03;5112317;28;20040;-61
2023/02/09 09:29:04;;;;;;;20.15;10.45;;;;;;;1.58;71.27;103065.34;5080450;28;20047;-62
2023/02/09 09:31:32;;;;;;;20.25;10.68;;;;;;;1.60;71.72;103055.31;5114515;28;20069;-61
2023/02/09 09:34:00;;;;;;;21.83;10.38;;;;;;;1.62;71.13;103061.38;5094583;28;20056;-62
2023/02/09 09:36:28;;;;;;;16.60;9.70;;;;;;;1.60;68.90;103078.63;5116455;28;20089;-63
2023/02/09 09:38:55;;;;;;;16.77;10.40;;;;;;;1.57;68.02;103069.03;5098528;28;20064;-61
2023/02/09 09:41:30;;;;;;;16.83;10.00;;;;;;;1.55;69.94;103081.78;5097658;28;20059;-63
2023/02/09 09:43:59;;;;;;;19.48;10.02;;;;;;;1.54;67.58;103065.81;5095807;28;20064;-62
2023/02/09 09:46:39;;;;;;;16.15;10.88;;;;;;;1.52;67.81;103057.91;5093125;28;20051;-62
2023/02/09 09:49:09;;;;;;;18.55;11.20;;;;;;;1.53;68.34;103054.22;5061164;28;20067;-61
2023/02/09 09:51:47;;;;;;;19.17;9.95;;;;;;;1.64;69.78;103070.13;5094914;28;20094;-62
2023/02/09 09:54:20;;;;;;;19.52;10.02;;;;;;;1.67;68.44;103091.31;5094253;28;20048;-62
2023/02/09 09:56:49;;;;;;;17.05;9.60;;;;;;;1.74;68.97;103091.53;5093681;28;20048;-62
2023/02/09 09:59:28;;;;;;;27.65;10.98;;;;;;;1.88;76.64;103069.50;5094137;28;20052;-64
2023/02/09 10:01:57;;;;;;;20.73;10.20;;;;;;;1.92;73.19;103080.78;5093576;28;20050;-61
2023/02/09 10:04:27;;;;;;;18.60;10.05;;;;;;;1.87;71.40;103085.78;5094521;28;20046;-64
2023/02/09 10:07:01;;;;;;;19.33;10.82;;;;;;;1.87;70.41;103086.63;5113203;28;20100;-61
2023/02/09 10:09:51;;;;;;;26.10;10.07;;;;;;;1.99;78.64;103087.22;5114907;28;20043;-63
2023/02/09 10:12:43;;;;;;;18.30;10.57;;;;;;;2.06;78.07;103096.34;5113596;28;20047;-63
2023/02/09 10:15:32;;;;;;;19.85;9.55;;;;;;;2.15;78.30;103104.50;5081367;28;20036;-62
2023/02/09 10:18:01;;;;;;;18.63;9.43;;;;;;;2.27;84.77;103095.19;5094205;28;20072;-63
2023/02/09 10:20:47;;;;;;;17.83;8.80;;;;;;;2.37;86.43;103087.84;5094514;28;20040;-62
2023/02/09 10:23:23;;;;;;;17.50;8.85;;;;;;;2.39;88.64;103091.25;5094148;28;20051;-62
2023/02/09 10:25:56;;;;;;;20.98;9.60;;;;;;;2.45;93.34;103079.84;5092986;28;20571;-61
2023/02/09 10:28:27;;;;;;;20.10;8.52;;;;;;;2.50;94.34;103071.28;5092887;28;20062;-62
2023/02/09 10:30:59;;;;;;;18.83;8.38;;;;;;;2.89;100.00;103087.00;5094258;28;20077;-64
2023/02/09 10:33:29;;;;;;;20.77;10.02;;;;;;;2.66;91.93;103097.47;5111062;28;20047;-62
2023/02/09 10:36:02;;;;;;;16.08;8.63;;;;;;;2.78;100.00;103085.41;5092931;28;20097;-61
2023/02/09 10:38:30;;;;;;;14.60;9.25;;;;;;;2.71;100.00;103085.19;5094013;28;20048;-62
2023/02/09 10:41:00;;;;;;;19.27;10.73;;;;;;;2.54;95.11;103100.41;5093099;28;20530;-62
2023/02/09 10:43:31;;;;;;;19.02;9.02;;;;;;;2.65;100.00;103104.69;5092770;28;20071;-64
2023/02/09 10:46:01;;;;;;;17.10;8.60;;;;;;;2.74;100.00;103111.81;5092250;28;20537;-63
2023/02/09 10:48:40;;;;;;;19.02;9.57;;;;;;;2.57;90.99;103115.41;5092822;28;20044;-62
2023/02/09 10:51:27;;;;;;;17.05;9.40;;;;;;;2.57;87.57;103115.41;5093036;28;20594;-62
2023/02/09 10:54:00;;;;;;;16.15;9.13;;;;;;;2.85;100.00;103102.63;5102039;28;20134;-63
2023/02/09 10:56:41;;;;;;;14.38;8.15;;;;;;;2.92;100.00;103098.28;5114026;28;20123;-61
2023/02/09 10:59:23;;;;;;;18.38;9.38;;;;;;;2.98;100.00;103094.94;5112701;28;20057;-63
2023/02/09 11:02:00;;;;;;;21.17;9.95;;;;;;;2.93;100.00;103099.94;5113357;28;20043;-64
2023/02/09 11:04:39;;;;;;;16.77;10.25;;;;;;;2.73;82.50;103104.72;5103404;28;20078;-62
2023/02/09 11:07:13;;;;;;;18.73;10.20;;;;;;;2.66;78.87;103100.16;5094898;28;20062;-63
2023/02/09 11:09:49;;;;;;;16.35;10.68;;;;;;;2.64;75.39;103094.09;5094051;28;20454;-62
2023/02/09 11:12:21;;;;;;;14.63;9.40;;;;;;;2.69;75.29;103099.81;5095697;28;20048;-63
2023/02/09 11:14:49;;;;;;;17.77;8.38;;;;;;;2.92;92.86;103102.81;5129878;28;20051;-62
2023/02/09 11:17:41;;;;;;;18.50;10.15;;;;;;;2.98;89.87;103097.66;5132437;28;20070;-62
2023/02/09 11:20:29;;;;;;;18.48;9.10;;;;;;;2.96;86.10;103099.66;5097442;28;20051;-63
2023/02/09 11:23:26;;;;;;;15.98;9.00;;;;;;;2.95;81.55;103106.03;5130340;28;20039;-59
2023/02/09 11:26:01;;;;;;;19.33;10.40;;;;;;;2.84;72.50;103117.09;5095422;28;20044;-61
2023/02/09 11:28:38;;;;;;;19.67;11.95;;;;;;;2.81;71.26;103114.69;5093778;28;20079;-62
2023/02/09 11:31:16;;;;;;;;;;;;;;;3.04;90.83;103119.53;5094018;28;20040;-62
2023/02/09 11:34:12;;;;;;;15.07;9.38;;;;;;;3.05;83.92;103113.97;5092551;28;19985;-62
2023/02/09 11:37:03;;;;;;;16.10;9.27;;;;;;;3.05;81.68;103113.13;5093494;28;20503;-63
2023/02/09 11:39:44;;;;;;;15.35;9.38;;;;;;;3.04;76.79;103104.22;5092746;28;20131;-63
2023/02/09 11:45:02;;;;;;;16.55;10.82;;;;;;;3.03;71.80;103115.16;5077757;28;20135;-63
2023/02/09 11:47:53;;;;;;;18.52;10.55;;;;;;;3.05;72.01;103116.66;5091680;28;20052;-62
2023/02/09 11:50:46;;;;;;;16.67;10.73;;;;;;;3.13;75.02;103110.50;4365139;28;10000222;-60
2023/02/09 11:53:50;;;;;;;17.00;10.93;;;;;;;3.09;71.79;103119.91;5089053;28;20161;-61
2023/02/09 11:56:22;;;;;;;20.80;12.50;;;;;;;3.06;71.04;103126.47;5065891;28;20123;-62